sensor_id;sensor_type;location;lat;lon;timestamp;temperature;humidity
63202;DHT22;49296;48.188;11.566;2023-07-29T00:01:40;18.71;80.50
63202;DHT22;49296;48.188;11.566;2023-07-29T00:04:07;18.70;80.05
63202;DHT22;49296;48.188;11.566;2023-07-29T00:06:34;18.68;80.25
63202;DHT22;49296;48.188;11.566;2023-07-29T00:09:01;18.71;80.08
63202;DHT22;49296;48.188;11.566;2023-07-29T00:11:28;18.72;79.88
63202;DHT22;49296;48.188;11.566;2023-07-29T00:13:57;18.78;79.89
63202;DHT22;49296;48.188;11.566;2023-07-29T00:16:23;18.78;79.58
63202;DHT22;49296;48.188;11.566;2023-07-29T00:18:50;18.78;79.56
63202;DHT22;49296;48.188;11.566;2023-07-29T00:21:16;18.68;79.36
63202;DHT22;49296;48.188;11.566;2023-07-29T00:23:43;18.74;79.22
63202;DHT22;49296;48.188;11.566;2023-07-29T00:26:09;18.65;79.38
63202;DHT22;49296;48.188;11.566;2023-07-29T00:28:36;18.67;79.24
63202;DHT22;49296;48.188;11.566;2023-07-29T00:31:04;18.74;79.08
63202;DHT22;49296;48.188;11.566;2023-07-29T00:33:30;18.75;78.76
63202;DHT22;49296;48.188;11.566;2023-07-29T00:35:57;18.77;78.68
63202;DHT22;49296;48.188;11.566;2023-07-29T00:38:27;18.81;78.54
63202;DHT22;49296;48.188;11.566;2023-07-29T00:40:53;18.78;78.50
63202;DHT22;49296;48.188;11.566;2023-07-29T00:43:20;18.65;78.51
63202;DHT22;49296;48.188;11.566;2023-07-29T00:45:47;18.60;78.66
63202;DHT22;49296;48.188;11.566;2023-07-29T00:48:15;18.68;78.55
63202;DHT22;49296;48.188;11.566;2023-07-29T00:50:42;18.74;78.10
63202;DHT22;49296;48.188;11.566;2023-07-29T00:53:08;18.75;77.97
63202;DHT22;49296;48.188;11.566;2023-07-29T00:55:35;18.92;77.81
63202;DHT22;49296;48.188;11.566;2023-07-29T00:58:02;18.95;77.58
63202;DHT22;49296;48.188;11.566;2023-07-29T01:00:29;18.97;77.53
63202;DHT22;49296;48.188;11.566;2023-07-29T01:02:56;18.97;77.26
63202;DHT22;49296;48.188;11.566;2023-07-29T01:05:27;18.83;77.96
63202;DHT22;49296;48.188;11.566;2023-07-29T01:07:59;18.83;77.87
63202;DHT22;49296;48.188;11.566;2023-07-29T01:10:34;18.77;77.98
63202;DHT22;49296;48.188;11.566;2023-07-29T01:13:12;18.70;78.32
63202;DHT22;49296;48.188;11.566;2023-07-29T01:15:44;18.56;78.61
63202;DHT22;49296;48.188;11.566;2023-07-29T01:18:17;18.57;78.81
63202;DHT22;49296;48.188;11.566;2023-07-29T01:20:46;18.61;78.57
63202;DHT22;49296;48.188;11.566;2023-07-29T01:23:15;18.56;78.49
63202;DHT22;49296;48.188;11.566;2023-07-29T01:25:43;18.70;78.56
63202;DHT22;49296;48.188;11.566;2023-07-29T01:28:10;18.75;78.22
63202;DHT22;49296;48.188;11.566;2023-07-29T01:30:39;18.89;77.90
63202;DHT22;49296;48.188;11.566;2023-07-29T01:33:10;19.06;77.70
63202;DHT22;49296;48.188;11.566;2023-07-29T01:35:43;19.09;77.39
63202;DHT22;49296;48.188;11.566;2023-07-29T01:38:14;18.99;77.36
63202;DHT22;49296;48.188;11.566;2023-07-29T01:40:44;19.09;77.16
63202;DHT22;49296;48.188;11.566;2023-07-29T01:43:11;19.15;76.97
63202;DHT22;49296;48.188;11.566;2023-07-29T01:45:39;19.22;76.86
63202;DHT22;49296;48.188;11.566;2023-07-29T01:48:06;19.11;76.76
63202;DHT22;49296;48.188;11.566;2023-07-29T01:50:33;19.15;76.81
63202;DHT22;49296;48.188;11.566;2023-07-29T01:53:00;19.11;76.79
63202;DHT22;49296;48.188;11.566;2023-07-29T01:55:27;19.23;76.78
63202;DHT22;49296;48.188;11.566;2023-07-29T01:57:54;19.22;76.40
63202;DHT22;49296;48.188;11.566;2023-07-29T02:00:21;19.19;76.30
63202;DHT22;49296;48.188;11.566;2023-07-29T02:02:48;19.27;76.18
63202;DHT22;49296;48.188;11.566;2023-07-29T02:05:14;19.34;75.89
63202;DHT22;49296;48.188;11.566;2023-07-29T02:07:41;19.29;76.00
63202;DHT22;49296;48.188;11.566;2023-07-29T02:10:08;19.39;76.07
63202;DHT22;49296;48.188;11.566;2023-07-29T02:12:35;19.46;76.02
63202;DHT22;49296;48.188;11.566;2023-07-29T02:15:03;19.49;76.18
63202;DHT22;49296;48.188;11.566;2023-07-29T02:17:30;19.47;76.00
63202;DHT22;49296;48.188;11.566;2023-07-29T02:19:56;19.43;76.10
63202;DHT22;49296;48.188;11.566;2023-07-29T02:22:23;19.45;76.13
63202;DHT22;49296;48.188;11.566;2023-07-29T02:24:49;19.36;76.33
63202;DHT22;49296;48.188;11.566;2023-07-29T02:27:16;19.34;76.45
63202;DHT22;49296;48.188;11.566;2023-07-29T02:29:42;19.37;76.47
63202;DHT22;49296;48.188;11.566;2023-07-29T02:32:10;19.34;76.41
63202;DHT22;49296;48.188;11.566;2023-07-29T02:34:37;19.34;76.50
63202;DHT22;49296;48.188;11.566;2023-07-29T02:37:03;19.27;76.65
63202;DHT22;49296;48.188;11.566;2023-07-29T02:39:30;19.26;76.63
63202;DHT22;49296;48.188;11.566;2023-07-29T02:41:57;19.27;76.26
63202;DHT22;49296;48.188;11.566;2023-07-29T02:44:24;19.23;76.38
63202;DHT22;49296;48.188;11.566;2023-07-29T02:46:51;19.25;76.20
63202;DHT22;49296;48.188;11.566;2023-07-29T02:49:21;19.15;76.22
63202;DHT22;49296;48.188;11.566;2023-07-29T02:51:48;18.88;76.83
63202;DHT22;49296;48.188;11.566;2023-07-29T02:54:14;18.80;77.21
63202;DHT22;49296;48.188;11.566;2023-07-29T02:56:41;18.95;76.89
63202;DHT22;49296;48.188;11.566;2023-07-29T02:59:07;19.06;77.09
63202;DHT22;49296;48.188;11.566;2023-07-29T03:01:34;19.11;76.91
63202;DHT22;49296;48.188;11.566;2023-07-29T03:04:01;19.14;76.70
63202;DHT22;49296;48.188;11.566;2023-07-29T03:06:29;19.18;76.67
63202;DHT22;49296;48.188;11.566;2023-07-29T03:08:55;19.20;76.58
63202;DHT22;49296;48.188;11.566;2023-07-29T03:11:22;19.19;76.59
63202;DHT22;49296;48.188;11.566;2023-07-29T03:13:48;19.20;76.51
63202;DHT22;49296;48.188;11.566;2023-07-29T03:16:16;19.20;76.49
63202;DHT22;49296;48.188;11.566;2023-07-29T03:18:43;19.18;76.64
63202;DHT22;49296;48.188;11.566;2023-07-29T03:21:10;19.19;76.57
63202;DHT22;49296;48.188;11.566;2023-07-29T03:23:38;19.16;76.46
63202;DHT22;49296;48.188;11.566;2023-07-29T03:26:05;19.18;76.78
63202;DHT22;49296;48.188;11.566;2023-07-29T03:28:37;19.11;76.76
63202;DHT22;49296;48.188;11.566;2023-07-29T03:31:03;19.14;76.53
63202;DHT22;49296;48.188;11.566;2023-07-29T03:33:30;19.01;76.51
63202;DHT22;49296;48.188;11.566;2023-07-29T03:35:56;19.01;76.36
63202;DHT22;49296;48.188;11.566;2023-07-29T03:38:23;19.09;76.27
63202;DHT22;49296;48.188;11.566;2023-07-29T03:40:51;19.05;76.12
63202;DHT22;49296;48.188;11.566;2023-07-29T03:43:18;19.15;75.97
63202;DHT22;49296;48.188;11.566;2023-07-29T03:45:45;19.16;75.91
63202;DHT22;49296;48.188;11.566;2023-07-29T03:48:12;19.02;75.87
63202;DHT22;49296;48.188;11.566;2023-07-29T03:50:38;19.05;75.99
63202;DHT22;49296;48.188;11.566;2023-07-29T03:53:05;18.99;76.06
63202;DHT22;49296;48.188;11.566;2023-07-29T03:55:32;19.09;75.84
63202;DHT22;49296;48.188;11.566;2023-07-29T03:58:00;19.15;75.55
63202;DHT22;49296;48.188;11.566;2023-07-29T04:00:27;19.15;75.59
63202;DHT22;49296;48.188;11.566;2023-07-29T04:02:53;19.15;75.42
63202;DHT22;49296;48.188;11.566;2023-07-29T04:05:20;19.18;75.32
63202;DHT22;49296;48.188;11.566;2023-07-29T04:07:47;19.12;75.59
63202;DHT22;49296;48.188;11.566;2023-07-29T04:10:14;19.12;75.51
63202;DHT22;49296;48.188;11.566;2023-07-29T04:12:40;19.05;75.50
63202;DHT22;49296;48.188;11.566;2023-07-29T04:15:09;19.16;75.56
63202;DHT22;49296;48.188;11.566;2023-07-29T04:17:35;19.23;75.25
63202;DHT22;49296;48.188;11.566;2023-07-29T04:20:02;19.15;75.23
63202;DHT22;49296;48.188;11.566;2023-07-29T04:22:29;19.27;74.92
63202;DHT22;49296;48.188;11.566;2023-07-29T04:24:55;19.33;74.87
63202;DHT22;49296;48.188;11.566;2023-07-29T04:27:22;19.36;74.97
63202;DHT22;49296;48.188;11.566;2023-07-29T04:29:48;19.43;74.71
63202;DHT22;49296;48.188;11.566;2023-07-29T04:32:16;19.37;74.87
63202;DHT22;49296;48.188;11.566;2023-07-29T04:34:43;19.37;74.92
63202;DHT22;49296;48.188;11.566;2023-07-29T04:37:09;19.36;74.95
63202;DHT22;49296;48.188;11.566;2023-07-29T04:39:36;19.37;74.87
63202;DHT22;49296;48.188;11.566;2023-07-29T04:42:03;19.40;74.59
63202;DHT22;49296;48.188;11.566;2023-07-29T04:44:29;19.29;74.93
63202;DHT22;49296;48.188;11.566;2023-07-29T04:46:56;19.34;74.85
63202;DHT22;49296;48.188;11.566;2023-07-29T04:49:24;19.33;74.91
63202;DHT22;49296;48.188;11.566;2023-07-29T04:51:50;19.37;74.90
63202;DHT22;49296;48.188;11.566;2023-07-29T04:54:17;19.40;74.87
63202;DHT22;49296;48.188;11.566;2023-07-29T04:56:46;19.32;74.96
63202;DHT22;49296;48.188;11.566;2023-07-29T04:59:12;19.32;74.98
63202;DHT22;49296;48.188;11.566;2023-07-29T05:01:39;19.33;75.46
63202;DHT22;49296;48.188;11.566;2023-07-29T05:04:07;19.37;75.12
63202;DHT22;49296;48.188;11.566;2023-07-29T05:06:35;19.42;75.16
63202;DHT22;49296;48.188;11.566;2023-07-29T05:09:12;19.42;75.13
63202;DHT22;49296;48.188;11.566;2023-07-29T05:11:39;19.40;75.03
63202;DHT22;49296;48.188;11.566;2023-07-29T05:14:06;19.51;74.83
63202;DHT22;49296;48.188;11.566;2023-07-29T05:16:34;19.60;74.80
63202;DHT22;49296;48.188;11.566;2023-07-29T05:19:00;19.63;74.52
63202;DHT22;49296;48.188;11.566;2023-07-29T05:21:27;19.67;74.51
63202;DHT22;49296;48.188;11.566;2023-07-29T05:23:55;19.66;74.34
63202;DHT22;49296;48.188;11.566;2023-07-29T05:26:21;19.70;74.23
63202;DHT22;49296;48.188;11.566;2023-07-29T05:28:48;19.74;74.00
63202;DHT22;49296;48.188;11.566;2023-07-29T05:31:14;19.84;73.84
63202;DHT22;49296;48.188;11.566;2023-07-29T05:33:41;19.88;73.54
63202;DHT22;49296;48.188;11.566;2023-07-29T05:36:08;19.94;73.84
63202;DHT22;49296;48.188;11.566;2023-07-29T05:38:34;19.79;73.66
63202;DHT22;49296;48.188;11.566;2023-07-29T05:41:02;19.78;73.90
63202;DHT22;49296;48.188;11.566;2023-07-29T05:43:28;19.77;73.91
63202;DHT22;49296;48.188;11.566;2023-07-29T05:45:55;19.64;73.76
63202;DHT22;49296;48.188;11.566;2023-07-29T05:48:22;19.64;74.09
63202;DHT22;49296;48.188;11.566;2023-07-29T05:50:48;19.54;74.01
63202;DHT22;49296;48.188;11.566;2023-07-29T05:53:15;19.54;74.27
63202;DHT22;49296;48.188;11.566;2023-07-29T05:55:42;19.54;74.33
63202;DHT22;49296;48.188;11.566;2023-07-29T05:58:10;19.53;74.31
63202;DHT22;49296;48.188;11.566;2023-07-29T06:00:36;19.43;74.44
63202;DHT22;49296;48.188;11.566;2023-07-29T06:03:03;19.36;74.68
63202;DHT22;49296;48.188;11.566;2023-07-29T06:05:29;19.27;74.71
63202;DHT22;49296;48.188;11.566;2023-07-29T06:07:56;19.19;75.32
63202;DHT22;49296;48.188;11.566;2023-07-29T06:10:22;19.40;75.10
63202;DHT22;49296;48.188;11.566;2023-07-29T06:12:49;19.54;75.13
63202;DHT22;49296;48.188;11.566;2023-07-29T06:15:17;19.64;75.49
63202;DHT22;49296;48.188;11.566;2023-07-29T06:17:47;19.57;76.13
63202;DHT22;49296;48.188;11.566;2023-07-29T06:20:13;19.67;75.83
63202;DHT22;49296;48.188;11.566;2023-07-29T06:22:41;19.79;75.69
63202;DHT22;49296;48.188;11.566;2023-07-29T06:25:08;19.91;75.22
63202;DHT22;49296;48.188;11.566;2023-07-29T06:27:34;20.02;75.21
63202;DHT22;49296;48.188;11.566;2023-07-29T06:30:01;19.98;75.57
63202;DHT22;49296;48.188;11.566;2023-07-29T06:32:29;19.99;75.69
63202;DHT22;49296;48.188;11.566;2023-07-29T06:34:55;19.61;76.55
63202;DHT22;49296;48.188;11.566;2023-07-29T06:37:22;19.56;76.11
63202;DHT22;49296;48.188;11.566;2023-07-29T06:39:48;19.67;76.22
63202;DHT22;49296;48.188;11.566;2023-07-29T06:42:15;19.64;76.15
63202;DHT22;49296;48.188;11.566;2023-07-29T06:44:41;19.77;76.23
63202;DHT22;49296;48.188;11.566;2023-07-29T06:47:08;19.61;76.45
63202;DHT22;49296;48.188;11.566;2023-07-29T06:49:39;19.46;77.18
63202;DHT22;49296;48.188;11.566;2023-07-29T06:52:05;19.19;77.94
63202;DHT22;49296;48.188;11.566;2023-07-29T06:54:32;19.02;78.47
63202;DHT22;49296;48.188;11.566;2023-07-29T06:56:59;18.94;78.58
63202;DHT22;49296;48.188;11.566;2023-07-29T06:59:25;18.85;79.24
63202;DHT22;49296;48.188;11.566;2023-07-29T07:01:52;18.85;79.66
63202;DHT22;49296;48.188;11.566;2023-07-29T07:04:19;18.68;80.98
63202;DHT22;49296;48.188;11.566;2023-07-29T07:06:50;18.61;82.25
63202;DHT22;49296;48.188;11.566;2023-07-29T07:09:17;18.54;82.41
63202;DHT22;49296;48.188;11.566;2023-07-29T07:11:43;18.59;82.40
63202;DHT22;49296;48.188;11.566;2023-07-29T07:14:10;18.54;82.47
63202;DHT22;49296;48.188;11.566;2023-07-29T07:16:36;18.54;82.74
63202;DHT22;49296;48.188;11.566;2023-07-29T07:19:04;18.47;83.38
63202;DHT22;49296;48.188;11.566;2023-07-29T07:21:31;18.57;83.14
63202;DHT22;49296;48.188;11.566;2023-07-29T07:24:00;18.61;83.13
63202;DHT22;49296;48.188;11.566;2023-07-29T07:26:27;18.63;83.38
63202;DHT22;49296;48.188;11.566;2023-07-29T07:28:53;18.65;83.41
63202;DHT22;49296;48.188;11.566;2023-07-29T07:31:20;18.67;83.29
63202;DHT22;49296;48.188;11.566;2023-07-29T07:33:46;18.75;83.30
63202;DHT22;49296;48.188;11.566;2023-07-29T07:36:13;18.95;82.75
63202;DHT22;49296;48.188;11.566;2023-07-29T07:38:41;19.06;82.20
63202;DHT22;49296;48.188;11.566;2023-07-29T07:41:09;19.18;82.08
63202;DHT22;49296;48.188;11.566;2023-07-29T07:43:35;19.27;81.43
63202;DHT22;49296;48.188;11.566;2023-07-29T07:46:03;19.49;81.37
63202;DHT22;49296;48.188;11.566;2023-07-29T07:48:30;19.54;80.55
63202;DHT22;49296;48.188;11.566;2023-07-29T07:50:58;19.70;80.31
63202;DHT22;49296;48.188;11.566;2023-07-29T07:53:24;19.79;80.08
63202;DHT22;49296;48.188;11.566;2023-07-29T07:55:52;19.81;79.30
63202;DHT22;49296;48.188;11.566;2023-07-29T07:58:20;19.98;79.53
63202;DHT22;49296;48.188;11.566;2023-07-29T08:00:46;19.96;79.50
63202;DHT22;49296;48.188;11.566;2023-07-29T08:03:13;20.13;78.79
63202;DHT22;49296;48.188;11.566;2023-07-29T08:05:39;20.13;78.83
63202;DHT22;49296;48.188;11.566;2023-07-29T08:08:07;20.11;78.68
63202;DHT22;49296;48.188;11.566;2023-07-29T08:10:34;20.29;78.90
63202;DHT22;49296;48.188;11.566;2023-07-29T08:13:01;20.36;78.20
63202;DHT22;49296;48.188;11.566;2023-07-29T08:15:29;20.54;78.37
63202;DHT22;49296;48.188;11.566;2023-07-29T08:17:55;20.53;78.17
63202;DHT22;49296;48.188;11.566;2023-07-29T08:20:22;20.67;77.91
63202;DHT22;49296;48.188;11.566;2023-07-29T08:22:49;20.70;77.99
63202;DHT22;49296;48.188;11.566;2023-07-29T08:25:16;20.74;77.67
63202;DHT22;49296;48.188;11.566;2023-07-29T08:27:45;20.77;77.70
63202;DHT22;49296;48.188;11.566;2023-07-29T08:30:12;20.85;77.73
63202;DHT22;49296;48.188;11.566;2023-07-29T08:32:41;20.98;77.63
63202;DHT22;49296;48.188;11.566;2023-07-29T08:35:10;21.00;77.32
63202;DHT22;49296;48.188;11.566;2023-07-29T08:37:36;21.05;77.07
63202;DHT22;49296;48.188;11.566;2023-07-29T08:40:04;21.02;76.85
63202;DHT22;49296;48.188;11.566;2023-07-29T08:42:32;21.06;77.01
63202;DHT22;49296;48.188;11.566;2023-07-29T08:45:05;21.02;77.23
63202;DHT22;49296;48.188;11.566;2023-07-29T08:47:32;20.99;76.43
63202;DHT22;49296;48.188;11.566;2023-07-29T08:50:03;21.09;76.28
63202;DHT22;49296;48.188;11.566;2023-07-29T08:52:32;21.13;75.97
63202;DHT22;49296;48.188;11.566;2023-07-29T08:55:00;21.02;75.26
63202;DHT22;49296;48.188;11.566;2023-07-29T08:57:28;20.77;75.69
63202;DHT22;49296;48.188;11.566;2023-07-29T08:59:56;20.81;75.99
63202;DHT22;49296;48.188;11.566;2023-07-29T09:02:24;20.75;75.53
63202;DHT22;49296;48.188;11.566;2023-07-29T09:04:51;20.77;75.64
63202;DHT22;49296;48.188;11.566;2023-07-29T09:07:19;20.74;75.15
63202;DHT22;49296;48.188;11.566;2023-07-29T09:09:46;20.78;74.89
63202;DHT22;49296;48.188;11.566;2023-07-29T09:12:13;20.77;75.37
63202;DHT22;49296;48.188;11.566;2023-07-29T09:14:39;20.73;74.98
63202;DHT22;49296;48.188;11.566;2023-07-29T09:17:07;20.71;74.78
63202;DHT22;49296;48.188;11.566;2023-07-29T09:19:34;20.70;75.01
63202;DHT22;49296;48.188;11.566;2023-07-29T09:22:01;20.78;75.25
63202;DHT22;49296;48.188;11.566;2023-07-29T09:24:29;20.90;75.06
63202;DHT22;49296;48.188;11.566;2023-07-29T09:26:57;20.96;75.14
63202;DHT22;49296;48.188;11.566;2023-07-29T09:29:28;21.06;75.24
63202;DHT22;49296;48.188;11.566;2023-07-29T09:32:18;21.25;74.88
63202;DHT22;49296;48.188;11.566;2023-07-29T09:34:48;21.46;74.18
63202;DHT22;49296;48.188;11.566;2023-07-29T09:37:16;21.58;74.00
63202;DHT22;49296;48.188;11.566;2023-07-29T09:39:45;21.62;72.54
63202;DHT22;49296;48.188;11.566;2023-07-29T09:42:18;21.71;72.61
63202;DHT22;49296;48.188;11.566;2023-07-29T09:44:48;21.82;72.51
63202;DHT22;49296;48.188;11.566;2023-07-29T09:47:19;21.98;71.78
63202;DHT22;49296;48.188;11.566;2023-07-29T09:49:47;22.09;72.15
63202;DHT22;49296;48.188;11.566;2023-07-29T09:52:15;22.09;71.40
63202;DHT22;49296;48.188;11.566;2023-07-29T09:54:42;22.22;70.98
63202;DHT22;49296;48.188;11.566;2023-07-29T09:57:10;22.37;71.04
63202;DHT22;49296;48.188;11.566;2023-07-29T09:59:37;22.50;70.93
63202;DHT22;49296;48.188;11.566;2023-07-29T10:02:04;22.67;70.03
63202;DHT22;49296;48.188;11.566;2023-07-29T10:04:32;22.71;70.25
63202;DHT22;49296;48.188;11.566;2023-07-29T10:06:59;22.69;69.51
63202;DHT22;49296;48.188;11.566;2023-07-29T10:09:27;22.71;68.71
63202;DHT22;49296;48.188;11.566;2023-07-29T10:11:55;22.79;68.28
63202;DHT22;49296;48.188;11.566;2023-07-29T10:14:27;22.76;67.63
63202;DHT22;49296;48.188;11.566;2023-07-29T10:16:54;22.75;67.87
63202;DHT22;49296;48.188;11.566;2023-07-29T10:19:22;22.74;67.96
63202;DHT22;49296;48.188;11.566;2023-07-29T10:21:49;22.95;68.16
63202;DHT22;49296;48.188;11.566;2023-07-29T10:24:19;23.08;67.77
63202;DHT22;49296;48.188;11.566;2023-07-29T10:26:49;23.22;68.10
63202;DHT22;49296;48.188;11.566;2023-07-29T10:29:19;23.30;67.34
63202;DHT22;49296;48.188;11.566;2023-07-29T10:31:48;23.37;67.52
63202;DHT22;49296;48.188;11.566;2023-07-29T10:34:16;23.54;67.00
63202;DHT22;49296;48.188;11.566;2023-07-29T10:36:44;23.68;66.64
63202;DHT22;49296;48.188;11.566;2023-07-29T10:39:11;23.89;65.49
63202;DHT22;49296;48.188;11.566;2023-07-29T10:41:54;23.99;64.68
63202;DHT22;49296;48.188;11.566;2023-07-29T10:44:49;24.09;64.57
63202;DHT22;49296;48.188;11.566;2023-07-29T10:47:19;24.23;63.90
63202;DHT22;49296;48.188;11.566;2023-07-29T10:49:48;24.27;63.64
63202;DHT22;49296;48.188;11.566;2023-07-29T10:52:28;24.24;63.90
63202;DHT22;49296;48.188;11.566;2023-07-29T10:54:54;24.22;63.97
63202;DHT22;49296;48.188;11.566;2023-07-29T10:57:31;24.12;64.56
63202;DHT22;49296;48.188;11.566;2023-07-29T10:59:58;24.02;65.04
63202;DHT22;49296;48.188;11.566;2023-07-29T11:02:30;23.82;66.03
63202;DHT22;49296;48.188;11.566;2023-07-29T11:04:58;23.71;66.18
63202;DHT22;49296;48.188;11.566;2023-07-29T11:07:25;23.79;66.54
63202;DHT22;49296;48.188;11.566;2023-07-29T11:09:57;23.89;66.78
63202;DHT22;49296;48.188;11.566;2023-07-29T11:12:35;23.54;64.79
63202;DHT22;49296;48.188;11.566;2023-07-29T11:15:04;23.02;62.71
63202;DHT22;49296;48.188;11.566;2023-07-29T11:17:33;22.60;63.71
63202;DHT22;49296;48.188;11.566;2023-07-29T11:20:01;22.54;64.26
63202;DHT22;49296;48.188;11.566;2023-07-29T11:22:29;22.26;64.67
63202;DHT22;49296;48.188;11.566;2023-07-29T11:24:58;22.28;65.34
63202;DHT22;49296;48.188;11.566;2023-07-29T11:27:25;22.23;65.73
63202;DHT22;49296;48.188;11.566;2023-07-29T11:32:21;21.94;66.69
63202;DHT22;49296;48.188;11.566;2023-07-29T11:34:49;21.89;66.56
63202;DHT22;49296;48.188;11.566;2023-07-29T11:37:16;22.12;66.56
63202;DHT22;49296;48.188;11.566;2023-07-29T11:39:44;22.37;66.29
63202;DHT22;49296;48.188;11.566;2023-07-29T11:42:11;22.54;65.81
63202;DHT22;49296;48.188;11.566;2023-07-29T11:44:38;22.74;65.19
63202;DHT22;49296;48.188;11.566;2023-07-29T11:47:06;22.87;64.90
63202;DHT22;49296;48.188;11.566;2023-07-29T11:49:33;23.05;64.13
63202;DHT22;49296;48.188;11.566;2023-07-29T11:52:02;23.33;63.68
63202;DHT22;49296;48.188;11.566;2023-07-29T11:54:29;23.57;62.96
63202;DHT22;49296;48.188;11.566;2023-07-29T11:56:56;23.67;62.26
63202;DHT22;49296;48.188;11.566;2023-07-29T11:59:23;23.60;62.41
63202;DHT22;49296;48.188;11.566;2023-07-29T12:01:49;23.67;62.27
63202;DHT22;49296;48.188;11.566;2023-07-29T12:04:16;23.74;62.03
63202;DHT22;49296;48.188;11.566;2023-07-29T12:06:43;24.04;62.57
63202;DHT22;49296;48.188;11.566;2023-07-29T12:09:11;24.30;61.98
63202;DHT22;49296;48.188;11.566;2023-07-29T12:11:38;24.30;61.02
63202;DHT22;49296;48.188;11.566;2023-07-29T12:14:07;24.65;61.39
63202;DHT22;49296;48.188;11.566;2023-07-29T12:16:40;24.84;60.72
63202;DHT22;49296;48.188;11.566;2023-07-29T12:19:07;24.95;60.77
63202;DHT22;49296;48.188;11.566;2023-07-29T12:21:33;25.08;60.49
63202;DHT22;49296;48.188;11.566;2023-07-29T12:24:00;24.98;61.00
63202;DHT22;49296;48.188;11.566;2023-07-29T12:26:29;24.74;61.15
63202;DHT22;49296;48.188;11.566;2023-07-29T12:28:56;24.51;61.92
63202;DHT22;49296;48.188;11.566;2023-07-29T12:31:30;24.27;63.15
63202;DHT22;49296;48.188;11.566;2023-07-29T12:33:57;24.09;63.49
63202;DHT22;49296;48.188;11.566;2023-07-29T12:36:27;24.04;63.94
63202;DHT22;49296;48.188;11.566;2023-07-29T12:39:06;23.88;64.96
63202;DHT22;49296;48.188;11.566;2023-07-29T12:41:34;23.79;65.56
63202;DHT22;49296;48.188;11.566;2023-07-29T12:44:00;23.77;66.35
63202;DHT22;49296;48.188;11.566;2023-07-29T12:46:29;23.47;68.42
63202;DHT22;49296;48.188;11.566;2023-07-29T12:48:55;22.94;72.12
63202;DHT22;49296;48.188;11.566;2023-07-29T12:51:22;22.37;74.86
63202;DHT22;49296;48.188;11.566;2023-07-29T12:53:49;21.94;79.41
63202;DHT22;49296;48.188;11.566;2023-07-29T12:56:15;21.92;76.95
63202;DHT22;49296;48.188;11.566;2023-07-29T12:58:43;21.12;75.64
63202;DHT22;49296;48.188;11.566;2023-07-29T13:01:10;20.32;76.60
63202;DHT22;49296;48.188;11.566;2023-07-29T13:03:38;20.13;76.62
63202;DHT22;49296;48.188;11.566;2023-07-29T13:06:05;20.36;77.37
63202;DHT22;49296;48.188;11.566;2023-07-29T13:08:33;20.20;77.72
63202;DHT22;49296;48.188;11.566;2023-07-29T13:11:00;20.37;77.67
63202;DHT22;49296;48.188;11.566;2023-07-29T13:13:26;20.01;78.89
63202;DHT22;49296;48.188;11.566;2023-07-29T13:15:54;19.88;78.94
63202;DHT22;49296;48.188;11.566;2023-07-29T13:18:21;19.95;79.40
63202;DHT22;49296;48.188;11.566;2023-07-29T13:20:48;20.04;80.35
63202;DHT22;49296;48.188;11.566;2023-07-29T13:23:14;20.13;80.67
63202;DHT22;49296;48.188;11.566;2023-07-29T13:25:41;20.22;81.70
63202;DHT22;49296;48.188;11.566;2023-07-29T13:28:08;20.58;81.63
63202;DHT22;49296;48.188;11.566;2023-07-29T13:30:35;20.84;81.99
63202;DHT22;49296;48.188;11.566;2023-07-29T13:33:03;20.94;81.24
63202;DHT22;49296;48.188;11.566;2023-07-29T13:35:30;21.19;80.97
63202;DHT22;49296;48.188;11.566;2023-07-29T13:37:57;21.29;80.42
63202;DHT22;49296;48.188;11.566;2023-07-29T13:40:23;21.32;80.24
63202;DHT22;49296;48.188;11.566;2023-07-29T13:42:50;21.37;81.03
63202;DHT22;49296;48.188;11.566;2023-07-29T13:45:23;21.26;80.41
63202;DHT22;49296;48.188;11.566;2023-07-29T13:47:50;21.51;80.77
63202;DHT22;49296;48.188;11.566;2023-07-29T13:50:18;21.60;80.60
63202;DHT22;49296;48.188;11.566;2023-07-29T13:52:45;21.71;80.48
63202;DHT22;49296;48.188;11.566;2023-07-29T13:55:11;21.65;79.72
63202;DHT22;49296;48.188;11.566;2023-07-29T13:57:38;21.30;78.48
63202;DHT22;49296;48.188;11.566;2023-07-29T14:00:06;21.20;79.42
63202;DHT22;49296;48.188;11.566;2023-07-29T14:02:33;21.08;79.10
63202;DHT22;49296;48.188;11.566;2023-07-29T14:04:59;21.13;79.94
63202;DHT22;49296;48.188;11.566;2023-07-29T14:07:27;21.03;80.17
63202;DHT22;49296;48.188;11.566;2023-07-29T14:09:54;21.08;79.60
63202;DHT22;49296;48.188;11.566;2023-07-29T14:12:20;21.03;79.54
63202;DHT22;49296;48.188;11.566;2023-07-29T14:14:47;21.10;79.48
63202;DHT22;49296;48.188;11.566;2023-07-29T14:17:13;21.12;79.65
63202;DHT22;49296;48.188;11.566;2023-07-29T14:19:40;21.09;79.60
63202;DHT22;49296;48.188;11.566;2023-07-29T14:22:07;21.03;79.73
63202;DHT22;49296;48.188;11.566;2023-07-29T14:24:35;20.94;80.27
63202;DHT22;49296;48.188;11.566;2023-07-29T14:27:01;21.03;79.99
63202;DHT22;49296;48.188;11.566;2023-07-29T14:29:28;21.18;79.55
63202;DHT22;49296;48.188;11.566;2023-07-29T14:31:54;21.06;79.69
63202;DHT22;49296;48.188;11.566;2023-07-29T14:34:21;20.90;80.30
63202;DHT22;49296;48.188;11.566;2023-07-29T14:36:48;20.80;80.90
63202;DHT22;49296;48.188;11.566;2023-07-29T14:39:14;20.95;81.16
63202;DHT22;49296;48.188;11.566;2023-07-29T14:41:42;20.60;81.42
63202;DHT22;49296;48.188;11.566;2023-07-29T14:44:09;20.48;82.48
63202;DHT22;49296;48.188;11.566;2023-07-29T14:46:35;20.44;82.80
63202;DHT22;49296;48.188;11.566;2023-07-29T14:49:02;20.33;82.70
63202;DHT22;49296;48.188;11.566;2023-07-29T14:51:28;20.28;82.96
63202;DHT22;49296;48.188;11.566;2023-07-29T14:53:55;20.30;82.13
63202;DHT22;49296;48.188;11.566;2023-07-29T14:56:21;20.34;80.81
63202;DHT22;49296;48.188;11.566;2023-07-29T14:58:49;20.36;79.82
63202;DHT22;49296;48.188;11.566;2023-07-29T15:01:16;20.34;80.04
63202;DHT22;49296;48.188;11.566;2023-07-29T15:03:43;20.34;79.53
63202;DHT22;49296;48.188;11.566;2023-07-29T15:06:09;20.30;79.90
63202;DHT22;49296;48.188;11.566;2023-07-29T15:08:36;20.11;80.17
63202;DHT22;49296;48.188;11.566;2023-07-29T15:11:02;20.15;80.60
63202;DHT22;49296;48.188;11.566;2023-07-29T15:13:29;19.98;80.54
63202;DHT22;49296;48.188;11.566;2023-07-29T15:15:57;19.99;80.82
63202;DHT22;49296;48.188;11.566;2023-07-29T15:18:23;19.95;80.36
63202;DHT22;49296;48.188;11.566;2023-07-29T15:20:50;19.99;80.27